7QMTA FWKI-FWLK
Flight info
| Callsign | 7QMTA |
|---|---|
| Flight time | 0h 50m |
| Altitude | 9500 |
| Route | DVL |
| Aircraft | C210/L-SDGY/C |
Departure
| Time | 2026-04-28 08:03 |
|---|---|
| Airport | Kamuzu International Airport (FWKI) |
Arrival
| Time | 2026-04-28 08:53 |
|---|---|
| Airport | Likoma Island Airport (FWLK) |
| Time | Latitude | Longitude | Altitude | Speed | Heading |
|---|---|---|---|---|---|
| 2026-04-28 07:54 | -13.78777 | 33.78541 | 4025 ft | 0 kts | 309° |
| 2026-04-28 07:56 | -13.78776 | 33.78541 | 4025 ft | 0 kts | 309° |
| 2026-04-28 07:56 | -13.78777 | 33.78541 | 4025 ft | 0 kts | 309° |
| 2026-04-28 07:57 | -13.78776 | 33.78541 | 4025 ft | 0 kts | 309° |
| 2026-04-28 07:57 | -13.78777 | 33.78541 | 4025 ft | 0 kts | 309° |
| 2026-04-28 07:57 | -13.78776 | 33.78541 | 4025 ft | 0 kts | 305° |
| 2026-04-28 07:57 | -13.78760 | 33.78519 | 4025 ft | 7 kts | 306° |
| 2026-04-28 07:58 | -13.78739 | 33.78466 | 4025 ft | 6 kts | 344° |
| 2026-04-28 07:58 | -13.78718 | 33.78414 | 4025 ft | 15 kts | 259° |
| 2026-04-28 07:58 | -13.78767 | 33.78306 | 4025 ft | 18 kts | 226° |
| 2026-04-28 07:58 | -13.78792 | 33.78213 | 4025 ft | 16 kts | 307° |
| 2026-04-28 07:59 | -13.78695 | 33.78089 | 4026 ft | 29 kts | 309° |
| 2026-04-28 07:59 | -13.78539 | 33.77901 | 4026 ft | 40 kts | 309° |
| 2026-04-28 07:59 | -13.78341 | 33.77660 | 4025 ft | 47 kts | 310° |
| 2026-04-28 07:59 | -13.78164 | 33.77439 | 4025 ft | 32 kts | 306° |
| 2026-04-28 08:00 | -13.78034 | 33.77288 | 4025 ft | 25 kts | 308° |
| 2026-04-28 08:00 | -13.77942 | 33.77166 | 4025 ft | 18 kts | 309° |
| 2026-04-28 08:00 | -13.77863 | 33.77074 | 4025 ft | 15 kts | 306° |
| 2026-04-28 08:00 | -13.77817 | 33.76997 | 4026 ft | 10 kts | 269° |
| 2026-04-28 08:01 | -13.77827 | 33.76939 | 4026 ft | 8 kts | 244° |
| 2026-04-28 08:01 | -13.77861 | 33.76901 | 4026 ft | 7 kts | 216° |
| 2026-04-28 08:01 | -13.77897 | 33.76881 | 4027 ft | 5 kts | 198° |
| 2026-04-28 08:01 | -13.77939 | 33.76883 | 4027 ft | 14 kts | 153° |
| 2026-04-28 08:02 | -13.78100 | 33.77075 | 4025 ft | 56 kts | 130° |
| 2026-04-28 08:02 | -13.78411 | 33.77449 | 4074 ft | 75 kts | 133° |
| 2026-04-28 08:02 | -13.78770 | 33.77900 | 4174 ft | 89 kts | 129° |
| 2026-04-28 08:02 | -13.79199 | 33.78402 | 4399 ft | 95 kts | 131° |
| 2026-04-28 08:03 | -13.79619 | 33.78897 | 4690 ft | 94 kts | 133° |
| 2026-04-28 08:03 | -13.80050 | 33.79438 | 4875 ft | 105 kts | 125° |
| 2026-04-28 08:03 | -13.80150 | 33.80207 | 5109 ft | 113 kts | 86° |
| 2026-04-28 08:03 | -13.80077 | 33.81022 | 5356 ft | 113 kts | 83° |
| 2026-04-28 08:04 | -13.79819 | 33.81745 | 5511 ft | 124 kts | 47° |
| 2026-04-28 08:04 | -13.79050 | 33.82201 | 5739 ft | 132 kts | 22° |
| 2026-04-28 08:04 | -13.78184 | 33.82463 | 6098 ft | 128 kts | 20° |
| 2026-04-28 08:04 | -13.77335 | 33.82834 | 6219 ft | 139 kts | 30° |
| 2026-04-28 08:05 | -13.76445 | 33.83302 | 6401 ft | 148 kts | 31° |
| 2026-04-28 08:05 | -13.75512 | 33.83802 | 6596 ft | 153 kts | 31° |
| 2026-04-28 08:05 | -13.74585 | 33.84300 | 6802 ft | 149 kts | 31° |
| 2026-04-28 08:05 | -13.73669 | 33.84796 | 7013 ft | 149 kts | 31° |
| 2026-04-28 08:06 | -13.73062 | 33.85125 | 7153 ft | 149 kts | 30° |
| 2026-04-28 08:06 | -13.71862 | 33.85772 | 7424 ft | 145 kts | 31° |
| 2026-04-28 08:06 | -13.70967 | 33.86256 | 7629 ft | 146 kts | 31° |
| 2026-04-28 08:06 | -13.70070 | 33.86740 | 7847 ft | 144 kts | 31° |
| 2026-04-28 08:07 | -13.69179 | 33.87222 | 8057 ft | 145 kts | 31° |
| 2026-04-28 08:07 | -13.68574 | 33.87549 | 8212 ft | 146 kts | 31° |
| 2026-04-28 08:07 | -13.67679 | 33.88032 | 8419 ft | 147 kts | 30° |
| 2026-04-28 08:07 | -13.66773 | 33.88521 | 8639 ft | 147 kts | 31° |
| 2026-04-28 08:08 | -13.65868 | 33.89009 | 8864 ft | 146 kts | 30° |
| 2026-04-28 08:08 | -13.64966 | 33.89496 | 9082 ft | 147 kts | 30° |
| 2026-04-28 08:08 | -13.64061 | 33.89985 | 9302 ft | 146 kts | 30° |
| 2026-04-28 08:08 | -13.63168 | 33.90466 | 9482 ft | 146 kts | 30° |
| 2026-04-28 08:09 | -13.62238 | 33.90970 | 9489 ft | 155 kts | 30° |
| 2026-04-28 08:09 | -13.61262 | 33.91497 | 9490 ft | 162 kts | 30° |
| 2026-04-28 08:09 | -13.60268 | 33.92032 | 9476 ft | 163 kts | 30° |
| 2026-04-28 08:09 | -13.59269 | 33.92571 | 9486 ft | 161 kts | 30° |
| 2026-04-28 08:10 | -13.58279 | 33.93105 | 9474 ft | 159 kts | 30° |
| 2026-04-28 08:10 | -13.57300 | 33.93633 | 9473 ft | 161 kts | 30° |
| 2026-04-28 08:10 | -13.56307 | 33.94169 | 9466 ft | 161 kts | 30° |
| 2026-04-28 08:10 | -13.55306 | 33.94709 | 9470 ft | 164 kts | 30° |
| 2026-04-28 08:11 | -13.54289 | 33.95257 | 9472 ft | 165 kts | 30° |
| 2026-04-28 08:11 | -13.53272 | 33.95806 | 9466 ft | 166 kts | 30° |
| 2026-04-28 08:11 | -13.52253 | 33.96356 | 9460 ft | 165 kts | 30° |
| 2026-04-28 08:11 | -13.51237 | 33.96903 | 9455 ft | 165 kts | 30° |
| 2026-04-28 08:12 | -13.50225 | 33.97448 | 9453 ft | 164 kts | 30° |
| 2026-04-28 08:12 | -13.49208 | 33.97997 | 9447 ft | 165 kts | 30° |
| 2026-04-28 08:12 | -13.48191 | 33.98544 | 9449 ft | 164 kts | 30° |
| 2026-04-28 08:12 | -13.47173 | 33.99093 | 9445 ft | 165 kts | 30° |
| 2026-04-28 08:13 | -13.46170 | 33.99633 | 9447 ft | 164 kts | 30° |
| 2026-04-28 08:13 | -13.45139 | 34.00189 | 9442 ft | 165 kts | 30° |
| 2026-04-28 08:13 | -13.44132 | 34.00732 | 9440 ft | 166 kts | 30° |
| 2026-04-28 08:13 | -13.43118 | 34.01278 | 9446 ft | 165 kts | 30° |
| 2026-04-28 08:14 | -13.42100 | 34.01827 | 9446 ft | 165 kts | 30° |
| 2026-04-28 08:14 | -13.41091 | 34.02371 | 9437 ft | 162 kts | 30° |
| 2026-04-28 08:14 | -13.40075 | 34.02916 | 9438 ft | 165 kts | 30° |
| 2026-04-28 08:14 | -13.39059 | 34.03465 | 9446 ft | 165 kts | 30° |
| 2026-04-28 08:15 | -13.38040 | 34.04014 | 9445 ft | 165 kts | 30° |
| 2026-04-28 08:15 | -13.37012 | 34.04566 | 9441 ft | 167 kts | 30° |
| 2026-04-28 08:15 | -13.35972 | 34.05127 | 9442 ft | 170 kts | 29° |
| 2026-04-28 08:15 | -13.34934 | 34.05684 | 9438 ft | 166 kts | 28° |
| 2026-04-28 08:16 | -13.33912 | 34.06235 | 9432 ft | 165 kts | 30° |
| 2026-04-28 08:16 | -13.32901 | 34.06781 | 9411 ft | 163 kts | 30° |
| 2026-04-28 08:16 | -13.31901 | 34.07317 | 9427 ft | 162 kts | 29° |
| 2026-04-28 08:16 | -13.30914 | 34.07848 | 9421 ft | 162 kts | 29° |
| 2026-04-28 08:17 | -13.29914 | 34.08387 | 9416 ft | 162 kts | 29° |
| 2026-04-28 08:17 | -13.28918 | 34.08922 | 9433 ft | 163 kts | 29° |
| 2026-04-28 08:17 | -13.27906 | 34.09468 | 9431 ft | 166 kts | 29° |
| 2026-04-28 08:17 | -13.26877 | 34.10021 | 9434 ft | 166 kts | 29° |
| 2026-04-28 08:18 | -13.25858 | 34.10568 | 9426 ft | 165 kts | 29° |
| 2026-04-28 08:18 | -13.24840 | 34.11115 | 9427 ft | 165 kts | 29° |
| 2026-04-28 08:18 | -13.23823 | 34.11664 | 9422 ft | 165 kts | 29° |
| 2026-04-28 08:18 | -13.22819 | 34.12204 | 9427 ft | 165 kts | 29° |
| 2026-04-28 08:19 | -13.21804 | 34.12748 | 9425 ft | 165 kts | 28° |
| 2026-04-28 08:19 | -13.20786 | 34.13296 | 9427 ft | 164 kts | 29° |
| 2026-04-28 08:19 | -13.19779 | 34.13837 | 9405 ft | 163 kts | 29° |
| 2026-04-28 08:19 | -13.18770 | 34.14381 | 9420 ft | 164 kts | 28° |
| 2026-04-28 08:20 | -13.17765 | 34.14919 | 9414 ft | 164 kts | 29° |
| 2026-04-28 08:20 | -13.16750 | 34.15465 | 9410 ft | 164 kts | 29° |
| 2026-04-28 08:20 | -13.15742 | 34.16008 | 9400 ft | 164 kts | 28° |
| 2026-04-28 08:20 | -13.14734 | 34.16549 | 9406 ft | 164 kts | 28° |
| 2026-04-28 08:21 | -13.13716 | 34.17096 | 9422 ft | 166 kts | 28° |
| 2026-04-28 08:21 | -13.12688 | 34.17648 | 9417 ft | 167 kts | 29° |
| 2026-04-28 08:21 | -13.11657 | 34.18202 | 9411 ft | 166 kts | 29° |
| 2026-04-28 08:21 | -13.10636 | 34.18749 | 9402 ft | 165 kts | 29° |
| 2026-04-28 08:22 | -13.09623 | 34.19293 | 9416 ft | 166 kts | 29° |
| 2026-04-28 08:22 | -13.08611 | 34.19839 | 9419 ft | 166 kts | 29° |
| 2026-04-28 08:22 | -13.07573 | 34.20395 | 9408 ft | 168 kts | 28° |
| 2026-04-28 08:22 | -13.06539 | 34.20949 | 9418 ft | 169 kts | 29° |
| 2026-04-28 08:23 | -13.05503 | 34.21506 | 9415 ft | 168 kts | 28° |
| 2026-04-28 08:23 | -13.04467 | 34.22063 | 9412 ft | 167 kts | 28° |
| 2026-04-28 08:23 | -13.03434 | 34.22616 | 9409 ft | 167 kts | 28° |
| 2026-04-28 08:23 | -13.02410 | 34.23166 | 9409 ft | 166 kts | 28° |
| 2026-04-28 08:24 | -13.01384 | 34.23717 | 9404 ft | 165 kts | 28° |
| 2026-04-28 08:24 | -13.00361 | 34.24265 | 9392 ft | 165 kts | 28° |
| 2026-04-28 08:24 | -12.99354 | 34.24806 | 9394 ft | 165 kts | 28° |
| 2026-04-28 08:24 | -12.98336 | 34.25352 | 9394 ft | 165 kts | 28° |
| 2026-04-28 08:25 | -12.97315 | 34.25899 | 9401 ft | 166 kts | 28° |
| 2026-04-28 08:25 | -12.96295 | 34.26447 | 9384 ft | 166 kts | 28° |
| 2026-04-28 08:25 | -12.95269 | 34.26996 | 9398 ft | 167 kts | 28° |
| 2026-04-28 08:26 | -12.93209 | 34.28101 | 9396 ft | 167 kts | 28° |
| 2026-04-28 08:26 | -12.92182 | 34.28651 | 9398 ft | 166 kts | 28° |
| 2026-04-28 08:26 | -12.91153 | 34.29203 | 9406 ft | 168 kts | 28° |
| 2026-04-28 08:26 | -12.90124 | 34.29756 | 9407 ft | 170 kts | 28° |
| 2026-04-28 08:27 | -12.89065 | 34.30324 | 9397 ft | 171 kts | 28° |
| 2026-04-28 08:27 | -12.88019 | 34.30884 | 9389 ft | 168 kts | 28° |
| 2026-04-28 08:27 | -12.86986 | 34.31437 | 9376 ft | 166 kts | 28° |
| 2026-04-28 08:27 | -12.85963 | 34.31985 | 9385 ft | 165 kts | 29° |
| 2026-04-28 08:28 | -12.84952 | 34.32527 | 9369 ft | 164 kts | 28° |
| 2026-04-28 08:28 | -12.83943 | 34.33067 | 9380 ft | 163 kts | 28° |
| 2026-04-28 08:28 | -12.82948 | 34.33601 | 9381 ft | 163 kts | 28° |
| 2026-04-28 08:28 | -12.81941 | 34.34140 | 9387 ft | 163 kts | 28° |
| 2026-04-28 08:29 | -12.80931 | 34.34681 | 9382 ft | 163 kts | 28° |
| 2026-04-28 08:29 | -12.79923 | 34.35220 | 9381 ft | 163 kts | 28° |
| 2026-04-28 08:29 | -12.78916 | 34.35760 | 9378 ft | 163 kts | 28° |
| 2026-04-28 08:29 | -12.77909 | 34.36299 | 9377 ft | 163 kts | 28° |
| 2026-04-28 08:30 | -12.76915 | 34.36831 | 9381 ft | 163 kts | 28° |
| 2026-04-28 08:30 | -12.75907 | 34.37371 | 9379 ft | 163 kts | 28° |
| 2026-04-28 08:30 | -12.74899 | 34.37910 | 9377 ft | 163 kts | 28° |
| 2026-04-28 08:30 | -12.73891 | 34.38450 | 9373 ft | 163 kts | 28° |
| 2026-04-28 08:31 | -12.72884 | 34.38989 | 9363 ft | 163 kts | 28° |
| 2026-04-28 08:31 | -12.71889 | 34.39522 | 9379 ft | 163 kts | 28° |
| 2026-04-28 08:31 | -12.70881 | 34.40061 | 9375 ft | 164 kts | 28° |
| 2026-04-28 08:31 | -12.69872 | 34.40601 | 9367 ft | 164 kts | 28° |
| 2026-04-28 08:32 | -12.68858 | 34.41143 | 9370 ft | 163 kts | 28° |
| 2026-04-28 08:32 | -12.67849 | 34.41683 | 9368 ft | 163 kts | 28° |
| 2026-04-28 08:32 | -12.66845 | 34.42221 | 9371 ft | 163 kts | 28° |
| 2026-04-28 08:32 | -12.65851 | 34.42752 | 9371 ft | 163 kts | 28° |
| 2026-04-28 08:33 | -12.64840 | 34.43293 | 9366 ft | 163 kts | 28° |
| 2026-04-28 08:33 | -12.63833 | 34.43831 | 9370 ft | 163 kts | 28° |
| 2026-04-28 08:33 | -12.62824 | 34.44371 | 9360 ft | 163 kts | 28° |
| 2026-04-28 08:33 | -12.61815 | 34.44910 | 9370 ft | 163 kts | 28° |
| 2026-04-28 08:34 | -12.60805 | 34.45451 | 9368 ft | 163 kts | 28° |
| 2026-04-28 08:34 | -12.59810 | 34.45983 | 9370 ft | 164 kts | 28° |
| 2026-04-28 08:34 | -12.58797 | 34.46524 | 9362 ft | 164 kts | 28° |
| 2026-04-28 08:34 | -12.57790 | 34.47062 | 9364 ft | 164 kts | 27° |
| 2026-04-28 08:35 | -12.56780 | 34.47602 | 9361 ft | 164 kts | 28° |
| 2026-04-28 08:35 | -12.55770 | 34.48142 | 9368 ft | 164 kts | 28° |
| 2026-04-28 08:35 | -12.54760 | 34.48681 | 9361 ft | 164 kts | 28° |
| 2026-04-28 08:35 | -12.53743 | 34.49225 | 9370 ft | 164 kts | 27° |
| 2026-04-28 08:36 | -12.52742 | 34.49760 | 9368 ft | 164 kts | 27° |
| 2026-04-28 08:36 | -12.51731 | 34.50300 | 9361 ft | 164 kts | 28° |
| 2026-04-28 08:36 | -12.50716 | 34.50842 | 9371 ft | 164 kts | 27° |
| 2026-04-28 08:36 | -12.49699 | 34.51385 | 9367 ft | 164 kts | 27° |
| 2026-04-28 08:37 | -12.48688 | 34.51925 | 9366 ft | 164 kts | 27° |
| 2026-04-28 08:37 | -12.47677 | 34.52465 | 9361 ft | 163 kts | 28° |
| 2026-04-28 08:37 | -12.46669 | 34.53004 | 9359 ft | 163 kts | 27° |
| 2026-04-28 08:37 | -12.45671 | 34.53536 | 9360 ft | 163 kts | 27° |
| 2026-04-28 08:38 | -12.44668 | 34.54072 | 9365 ft | 163 kts | 27° |
| 2026-04-28 08:38 | -12.44404 | 34.54212 | 9362 ft | 162 kts | 27° |
| 2026-04-28 08:38 | -12.43403 | 34.54747 | 9359 ft | 163 kts | 27° |
| 2026-04-28 08:38 | -12.42364 | 34.55302 | 9145 ft | 171 kts | 27° |
| 2026-04-28 08:39 | -12.41306 | 34.55868 | 8929 ft | 172 kts | 28° |
| 2026-04-28 08:39 | -12.40244 | 34.56436 | 8717 ft | 172 kts | 28° |
| 2026-04-28 08:39 | -12.39180 | 34.57003 | 8491 ft | 172 kts | 28° |
| 2026-04-28 08:39 | -12.38137 | 34.57561 | 8273 ft | 171 kts | 28° |
| 2026-04-28 08:40 | -12.37735 | 34.57776 | 8194 ft | 171 kts | 28° |
| 2026-04-28 08:42 | -12.37576 | 34.57861 | 8160 ft | 171 kts | 28° |
| 2026-04-28 08:42 | -12.36521 | 34.58422 | 7946 ft | 171 kts | 28° |
| 2026-04-28 08:42 | -12.35471 | 34.58981 | 7731 ft | 170 kts | 28° |
| 2026-04-28 08:42 | -12.34411 | 34.59516 | 7515 ft | 169 kts | 25° |
| 2026-04-28 08:43 | -12.33347 | 34.60010 | 7342 ft | 167 kts | 25° |
| 2026-04-28 08:43 | -12.32293 | 34.60498 | 7173 ft | 166 kts | 25° |
| 2026-04-28 08:43 | -12.31232 | 34.60953 | 7005 ft | 164 kts | 22° |
| 2026-04-28 08:43 | -12.30177 | 34.61393 | 6842 ft | 163 kts | 22° |
| 2026-04-28 08:44 | -12.29142 | 34.61821 | 6679 ft | 162 kts | 22° |
| 2026-04-28 08:44 | -12.28098 | 34.62250 | 6518 ft | 162 kts | 22° |
| 2026-04-28 08:44 | -12.27048 | 34.62680 | 6353 ft | 163 kts | 23° |
| 2026-04-28 08:44 | -12.25996 | 34.63105 | 6179 ft | 162 kts | 22° |
| 2026-04-28 08:45 | -12.24951 | 34.63528 | 6005 ft | 160 kts | 22° |
| 2026-04-28 08:45 | -12.23915 | 34.63944 | 5834 ft | 159 kts | 22° |
| 2026-04-28 08:45 | -12.22885 | 34.64357 | 5661 ft | 159 kts | 22° |
| 2026-04-28 08:45 | -12.21870 | 34.64761 | 5496 ft | 158 kts | 22° |
| 2026-04-28 08:46 | -12.20835 | 34.65172 | 5327 ft | 157 kts | 22° |
| 2026-04-28 08:46 | -12.19828 | 34.65571 | 5157 ft | 156 kts | 22° |
| 2026-04-28 08:46 | -12.18818 | 34.65967 | 4991 ft | 155 kts | 22° |
| 2026-04-28 08:46 | -12.17814 | 34.66360 | 4820 ft | 154 kts | 22° |
| 2026-04-28 08:47 | -12.16815 | 34.66749 | 4646 ft | 154 kts | 22° |
| 2026-04-28 08:47 | -12.15811 | 34.67142 | 4472 ft | 154 kts | 22° |
| 2026-04-28 08:47 | -12.14808 | 34.67533 | 4305 ft | 154 kts | 22° |
| 2026-04-28 08:47 | -12.13798 | 34.67933 | 4131 ft | 155 kts | 22° |
| 2026-04-28 08:48 | -12.12805 | 34.68332 | 3961 ft | 155 kts | 23° |
| 2026-04-28 08:48 | -12.11803 | 34.68736 | 3794 ft | 155 kts | 22° |
| 2026-04-28 08:48 | -12.10799 | 34.69143 | 3630 ft | 155 kts | 22° |
| 2026-04-28 08:48 | -12.09797 | 34.69550 | 3464 ft | 154 kts | 22° |
| 2026-04-28 08:49 | -12.08805 | 34.69952 | 3360 ft | 150 kts | 22° |
| 2026-04-28 08:49 | -12.07860 | 34.70343 | 3345 ft | 143 kts | 22° |
| 2026-04-28 08:49 | -12.06958 | 34.70711 | 3342 ft | 138 kts | 22° |
| 2026-04-28 08:49 | -12.06077 | 34.71077 | 3344 ft | 135 kts | 22° |
| 2026-04-28 08:50 | -12.05251 | 34.71490 | 3244 ft | 131 kts | 29° |
| 2026-04-28 08:50 | -12.04504 | 34.71953 | 3117 ft | 118 kts | 33° |
| 2026-04-28 08:50 | -12.03850 | 34.72430 | 3010 ft | 112 kts | 40° |
| 2026-04-28 08:50 | -12.03411 | 34.73011 | 2969 ft | 102 kts | 65° |
| 2026-04-28 08:51 | -12.03241 | 34.73699 | 2878 ft | 97 kts | 82° |
| 2026-04-28 08:51 | -12.03407 | 34.74317 | 2650 ft | 93 kts | 138° |
| 2026-04-28 08:51 | -12.03989 | 34.74491 | 2319 ft | 90 kts | 205° |
| 2026-04-28 08:51 | -12.04485 | 34.74167 | 2167 ft | 84 kts | 212° |
| 2026-04-28 08:52 | -12.05043 | 34.73993 | 2036 ft | 84 kts | 188° |
| 2026-04-28 08:52 | -12.05611 | 34.73932 | 1935 ft | 83 kts | 189° |
| 2026-04-28 08:52 | -12.06202 | 34.73840 | 1861 ft | 86 kts | 189° |
| 2026-04-28 08:52 | -12.06788 | 34.73774 | 1746 ft | 83 kts | 188° |
| 2026-04-28 08:53 | -12.07343 | 34.73715 | 1619 ft | 77 kts | 187° |
| 2026-04-28 08:53 | -12.07808 | 34.73656 | 1595 ft | 56 kts | 186° |
| 2026-04-28 08:53 | -12.08115 | 34.73616 | 1596 ft | 29 kts | 187° |
| 2026-04-28 08:53 | -12.08216 | 34.73598 | 1596 ft | 1 kts | 149° |
| 2026-04-28 08:54 | -12.08172 | 34.73608 | 1596 ft | 13 kts | 7° |
| 2026-04-28 08:54 | -12.08105 | 34.73617 | 1596 ft | 15 kts | 7° |
| 2026-04-28 08:54 | -12.07999 | 34.73632 | 1595 ft | 15 kts | 7° |
| 2026-04-28 08:54 | -12.07899 | 34.73644 | 1595 ft | 15 kts | 6° |
| 2026-04-28 08:55 | -12.07787 | 34.73654 | 1595 ft | 17 kts | 6° |
| 2026-04-28 08:55 | -12.07671 | 34.73671 | 1595 ft | 14 kts | 7° |
| 2026-04-28 08:55 | -12.07582 | 34.73684 | 1595 ft | 9 kts | 21° |
| 2026-04-28 08:55 | -12.07547 | 34.73742 | 1595 ft | 7 kts | 27° |
| 2026-04-28 08:56 | -12.07539 | 34.73739 | 1595 ft | 0 kts | 277° |
| 2026-04-28 09:23 | -12.07539 | 34.73736 | 1595 ft | 3 kts | 277° |
| 2026-04-28 09:24 | -12.07517 | 34.73691 | 1595 ft | 10 kts | 342° |
| 2026-04-28 09:24 | -12.07468 | 34.73679 | 1595 ft | 5 kts | 33° |
| 2026-04-28 09:24 | -12.07467 | 34.73692 | 1595 ft | 0 kts | 154° |
| 2026-04-28 09:27 | -12.07469 | 34.73696 | 1595 ft | 4 kts | 126° |
| 2026-04-28 09:27 | -12.07474 | 34.73698 | 1595 ft | 0 kts | 188° |
| 2026-04-28 09:28 | -12.07557 | 34.73682 | 1595 ft | 30 kts | 199° |